Terminal Aerodrome Forecast
Issued by NWS Chicago, IL

Home | Current Version | Previous Version | Text Only | Print | Product List | Glossary On
Versions: 1 2 3 4 5 6 7 8 9 10 11 12 13 14 15 16 17 18 19 20 21 22 23 24 25 26 27 28 29 30 31 32 33 34 35 36 37 38 39 40 41 42 43 44 45 46 47 48 49 50
000
FTUS43 KLOT 151931 AAA
TAFRFD
TAF AMD
KRFD 151931Z 1520/1618 16006KT P6SM VCSH SCT006 OVC015
      TEMPO 1520/1521 -SHRA BKN006 OVC012
     FM160000 09007KT 6SM BR OVC010
     FM160600 07006KT 4SM BR VCSH OVC009
     FM161200 07005KT 4SM BR OVC007
     FM161500 08005KT P6SM SCT007 OVC015=

USA.gov is the U.S. government's official web portal to all federal, state and local government web resources and services.